Emine Anne — TCBX9 — position and weather

sailwx.info

Track history (hours):
 
Tides and Currents Weather Stations Pressure Air Temp Water Temp Dewpoint Dewpoint Depression Visibility Wind Speed Wind Dir Waves Ship Positions

Emine Anne

Last reported at 2014-Sep-30 14:33 UTC. Time now 2014-Sep-30 17:53 UTC.
Position N 41°15' E 029°38'.

Length 69 m; draft 4.3 m.

Type: Ship. MMSI: 271002305.

Date/timePositionNaut miles runAvg speedWind from/ knotsBaromVisibWave heightAir tempDewpointWater temp
2014-Sep-30 14:33N 41°15' E 029°38'9 8.7
2014-Sep-30 13:33N 41°15' E 029°26'26 6.4
2014-Sep-30 09:32N 40°59' E 029°00'8 8.4
2014-Sep-30 08:33N 40°53' E 029°09'2 1.8
2014-Sep-30 07:28N 40°53' E 029°11'0 0.0
2014-Sep-30 06:33N 40°53' E 029°11'0 0.0
2014-Sep-30 05:22N 40°53' E 029°12'0 0.0
2014-Sep-30 04:26N 40°53' E 029°12'0 0.0
2014-Sep-30 03:21N 40°53' E 029°11'0 0.0
2014-Sep-30 02:20N 40°53' E 029°11'0 0.0
2014-Sep-30 01:18N 40°53' E 029°12'0 0.0
2014-Sep-30 00:23N 40°53' E 029°12'0 0.0
2014-Sep-29 23:13N 40°53' E 029°12'0 0.0
2014-Sep-29 22:28N 40°53' E 029°12'0 0.0
2014-Sep-29 21:24N 40°53' E 029°12'0 0.0
2014-Sep-29 20:24N 40°53' E 029°11'0 0.0
2014-Sep-29 19:30N 40°53' E 029°11'0 0.0
2014-Sep-29 18:23N 40°53' E 029°12'0 0.1
2014-Sep-29 17:31N 40°53' E 029°11'0 0.0
2014-Sep-29 16:32N 40°53' E 029°11'0 0.0
2014-Sep-29 15:32N 40°53' E 029°11'0 0.0
2014-Sep-29 14:33N 40°53' E 029°11'0 0.0
2014-Sep-29 13:31N 40°53' E 029°11'0 0.0
2014-Sep-29 12:31N 40°53' E 029°11'0 0.0
2014-Sep-29 11:28N 40°53' E 029°11'0 0.0
2014-Sep-29 10:31N 40°53' E 029°11'0 0.0
2014-Sep-29 09:26N 40°53' E 029°11'0 0.0
2014-Sep-29 08:31N 40°53' E 029°11'0 0.0
2014-Sep-29 07:07N 40°53' E 029°11'0 0.0
2014-Sep-29 06:04N 40°53' E 029°12'0 0.0
2014-Sep-29 05:16N 40°53' E 029°12'0 0.0
2014-Sep-29 04:23N 40°53' E 029°11'0 0.0
2014-Sep-29 03:20N 40°53' E 029°11'0 0.0
2014-Sep-29 01:30N 40°53' E 029°11'0 0.0
2014-Sep-29 00:32N 40°53' E 029°12'0 0.0
2014-Sep-28 23:13N 40°53' E 029°12'0 0.0
2014-Sep-28 22:32N 40°53' E 029°11'0 0.0
2014-Sep-28 21:27N 40°53' E 029°11'0 0.0
2014-Sep-28 20:32N 40°53' E 029°12'0 0.0
2014-Sep-28 19:22N 40°53' E 029°12'0 0.0
2014-Sep-28 18:12N 40°53' E 029°11'0 0.0
2014-Sep-28 17:32N 40°53' E 029°12'0 0.0
2014-Sep-28 16:23N 40°53' E 029°11'0 0.0
2014-Sep-28 15:28N 40°53' E 029°12'0 0.0
2014-Sep-28 14:31N 40°53' E 029°12'0 0.0
2014-Sep-28 12:33N 40°53' E 029°11'0 0.0
2014-Sep-28 11:27N 40°53' E 029°12'0 0.0
2014-Sep-28 10:30N 40°53' E 029°11'0 0.0
2014-Sep-28 09:32N 40°53' E 029°11'0 0.0
2014-Sep-27 11:25N 40°53' E 029°12'0 0.0
2014-Sep-27 10:25N 40°53' E 029°12'0 0.0
2014-Sep-27 09:30N 40°53' E 029°12'0 0.0
2014-Sep-27 08:33N 40°53' E 029°12'0 0.0
2014-Sep-27 07:22N 40°53' E 029°11'1 0.7
2014-Sep-27 06:24N 40°53' E 029°11'0 0.0
2014-Sep-27 05:27N 40°53' E 029°11'0 0.0
2014-Sep-27 04:32N 40°53' E 029°11'0 0.0
2014-Sep-27 03:28N 40°53' E 029°11'0 0.0
2014-Sep-27 02:33N 40°53' E 029°11'0 0.0
2014-Sep-27 01:21N 40°53' E 029°11'0 0.0
2014-Sep-27 00:32N 40°53' E 029°11'0 0.0
2014-Sep-26 23:22N 40°53' E 029°11'0 0.0
2014-Sep-26 22:27N 40°53' E 029°11'0 0.0
2014-Sep-26 21:30N 40°53' E 029°11'0 0.0
2014-Sep-26 20:31N 40°53' E 029°11'0 0.0
2014-Sep-26 19:28N 40°53' E 029°11'0 0.0
2014-Sep-26 18:21N 40°53' E 029°10'0 0.0
2014-Sep-26 17:33N 40°53' E 029°11'0 0.0
2014-Sep-26 16:15N 40°53' E 029°10'0 0.0
2014-Sep-26 15:32N 40°53' E 029°10'0 0.0
2014-Sep-26 14:26N 40°53' E 029°11'0 0.0
2014-Sep-26 13:31N 40°53' E 029°11'0 0.1
2014-Sep-26 12:14N 40°53' E 029°11'0 0.0
2014-Sep-26 11:28N 40°53' E 029°11'0 0.2
2014-Sep-26 09:31N 40°53' E 029°11'0 0.0
2014-Sep-26 08:13N 40°53' E 029°11'0 0.0
2014-Sep-26 07:33N 40°53' E 029°11'0 0.0
2014-Sep-26 06:27N 40°53' E 029°11'0 0.0
2014-Sep-26 05:22N 40°53' E 029°11'0 0.0
2014-Sep-26 04:29N 40°53' E 029°11'0 0.1
2014-Sep-26 03:32N 40°53' E 029°11'7 7.2
2014-Sep-26 02:33N 40°47' E 029°16'9 8.9
2014-Sep-26 01:33N 40°45' E 029°28'1 0.1
2014-Sep-25 07:33N 40°45' E 029°29'3 2.5
2014-Sep-25 06:32N 40°46' E 029°26'0 0.0
2014-Sep-25 05:23N 40°46' E 029°26'0 0.0
2014-Sep-25 04:32N 40°46' E 029°26'0 0.0
2014-Sep-25 01:24N 40°46' E 029°26'0 0.0
2014-Sep-25 00:16N 40°46' E 029°26'0 0.0
2014-Sep-24 23:17N 40°46' E 029°26'0 0.0
2014-Sep-24 22:26N 40°46' E 029°26'0 0.0
2014-Sep-24 18:32N 40°46' E 029°26'0 0.0
2014-Sep-24 16:30N 40°46' E 029°26'0 0.0
2014-Sep-24 15:28N 40°46' E 029°26'7 7.1
2014-Sep-24 14:33N 40°45' E 029°17'9 8.7
2014-Sep-24 13:32N 40°50' E 029°07'8 7.9
2014-Sep-24 12:33N 40°56' E 029°01'  
Track history (hours):
 
Tides and Currents Weather Stations Pressure Air Temp Water Temp Dewpoint Dewpoint Depression Visibility Wind Speed Wind Dir Waves Ship Positions

Emine Anne

Last reported at 2014-Sep-30 14:33 UTC. Time now 2014-Sep-30 17:53 UTC.
Position N 41°15' E 029°38'.

Length 69 m; draft 4.3 m.

Type: Ship. MMSI: 271002305.

Date/timePositionNaut miles runAvg speedWind from/ knotsBaromVisibWave heightAir tempDewpointWater temp
2014-Sep-30 14:33N 41°15' E 029°38'9 8.7
2014-Sep-30 13:33N 41°15' E 029°26'26 6.4
2014-Sep-30 09:32N 40°59' E 029°00'8 8.4
2014-Sep-30 08:33N 40°53' E 029°09'2 1.8
2014-Sep-30 07:28N 40°53' E 029°11'0 0.0
2014-Sep-30 06:33N 40°53' E 029°11'0 0.0
2014-Sep-30 05:22N 40°53' E 029°12'0 0.0
2014-Sep-30 04:26N 40°53' E 029°12'0 0.0
2014-Sep-30 03:21N 40°53' E 029°11'0 0.0
2014-Sep-30 02:20N 40°53' E 029°11'0 0.0
2014-Sep-30 01:18N 40°53' E 029°12'0 0.0
2014-Sep-30 00:23N 40°53' E 029°12'0 0.0
2014-Sep-29 23:13N 40°53' E 029°12'0 0.0
2014-Sep-29 22:28N 40°53' E 029°12'0 0.0
2014-Sep-29 21:24N 40°53' E 029°12'0 0.0
2014-Sep-29 20:24N 40°53' E 029°11'0 0.0
2014-Sep-29 19:30N 40°53' E 029°11'0 0.0
2014-Sep-29 18:23N 40°53' E 029°12'0 0.1
2014-Sep-29 17:31N 40°53' E 029°11'0 0.0
2014-Sep-29 16:32N 40°53' E 029°11'0 0.0
2014-Sep-29 15:32N 40°53' E 029°11'0 0.0
2014-Sep-29 14:33N 40°53' E 029°11'0 0.0
2014-Sep-29 13:31N 40°53' E 029°11'0 0.0
2014-Sep-29 12:31N 40°53' E 029°11'0 0.0
2014-Sep-29 11:28N 40°53' E 029°11'0 0.0
2014-Sep-29 10:31N 40°53' E 029°11'0 0.0
2014-Sep-29 09:26N 40°53' E 029°11'0 0.0
2014-Sep-29 08:31N 40°53' E 029°11'0 0.0
2014-Sep-29 07:07N 40°53' E 029°11'0 0.0
2014-Sep-29 06:04N 40°53' E 029°12'0 0.0
2014-Sep-29 05:16N 40°53' E 029°12'0 0.0
2014-Sep-29 04:23N 40°53' E 029°11'0 0.0
2014-Sep-29 03:20N 40°53' E 029°11'0 0.0
2014-Sep-29 01:30N 40°53' E 029°11'0 0.0
2014-Sep-29 00:32N 40°53' E 029°12'0 0.0
2014-Sep-28 23:13N 40°53' E 029°12'0 0.0
2014-Sep-28 22:32N 40°53' E 029°11'0 0.0
2014-Sep-28 21:27N 40°53' E 029°11'0 0.0
2014-Sep-28 20:32N 40°53' E 029°12'0 0.0
2014-Sep-28 19:22N 40°53' E 029°12'0 0.0
2014-Sep-28 18:12N 40°53' E 029°11'0 0.0
2014-Sep-28 17:32N 40°53' E 029°12'0 0.0
2014-Sep-28 16:23N 40°53' E 029°11'0 0.0
2014-Sep-28 15:28N 40°53' E 029°12'0 0.0
2014-Sep-28 14:31N 40°53' E 029°12'0 0.0
2014-Sep-28 12:33N 40°53' E 029°11'0 0.0
2014-Sep-28 11:27N 40°53' E 029°12'0 0.0
2014-Sep-28 10:30N 40°53' E 029°11'0 0.0
2014-Sep-28 09:32N 40°53' E 029°11'0 0.0
2014-Sep-27 11:25N 40°53' E 029°12'0 0.0
2014-Sep-27 10:25N 40°53' E 029°12'0 0.0
2014-Sep-27 09:30N 40°53' E 029°12'0 0.0
2014-Sep-27 08:33N 40°53' E 029°12'0 0.0
2014-Sep-27 07:22N 40°53' E 029°11'1 0.7
2014-Sep-27 06:24N 40°53' E 029°11'0 0.0
2014-Sep-27 05:27N 40°53' E 029°11'0 0.0
2014-Sep-27 04:32N 40°53' E 029°11'0 0.0
2014-Sep-27 03:28N 40°53' E 029°11'0 0.0
2014-Sep-27 02:33N 40°53' E 029°11'0 0.0
2014-Sep-27 01:21N 40°53' E 029°11'0 0.0
2014-Sep-27 00:32N 40°53' E 029°11'0 0.0
2014-Sep-26 23:22N 40°53' E 029°11'0 0.0
2014-Sep-26 22:27N 40°53' E 029°11'0 0.0
2014-Sep-26 21:30N 40°53' E 029°11'0 0.0
2014-Sep-26 20:31N 40°53' E 029°11'0 0.0
2014-Sep-26 19:28N 40°53' E 029°11'0 0.0
2014-Sep-26 18:21N 40°53' E 029°10'0 0.0
2014-Sep-26 17:33N 40°53' E 029°11'0 0.0
2014-Sep-26 16:15N 40°53' E 029°10'0 0.0
2014-Sep-26 15:32N 40°53' E 029°10'0 0.0
2014-Sep-26 14:26N 40°53' E 029°11'0 0.0
2014-Sep-26 13:31N 40°53' E 029°11'0 0.1
2014-Sep-26 12:14N 40°53' E 029°11'0 0.0
2014-Sep-26 11:28N 40°53' E 029°11'0 0.2
2014-Sep-26 09:31N 40°53' E 029°11'0 0.0
2014-Sep-26 08:13N 40°53' E 029°11'0 0.0
2014-Sep-26 07:33N 40°53' E 029°11'0 0.0
2014-Sep-26 06:27N 40°53' E 029°11'0 0.0
2014-Sep-26 05:22N 40°53' E 029°11'0 0.0
2014-Sep-26 04:29N 40°53' E 029°11'0 0.1
2014-Sep-26 03:32N 40°53' E 029°11'7 7.2
2014-Sep-26 02:33N 40°47' E 029°16'9 8.9
2014-Sep-26 01:33N 40°45' E 029°28'1 0.1
2014-Sep-25 07:33N 40°45' E 029°29'3 2.5
2014-Sep-25 06:32N 40°46' E 029°26'0 0.0
2014-Sep-25 05:23N 40°46' E 029°26'0 0.0
2014-Sep-25 04:32N 40°46' E 029°26'0 0.0
2014-Sep-25 01:24N 40°46' E 029°26'0 0.0
2014-Sep-25 00:16N 40°46' E 029°26'0 0.0
2014-Sep-24 23:17N 40°46' E 029°26'0 0.0
2014-Sep-24 22:26N 40°46' E 029°26'0 0.0
2014-Sep-24 18:32N 40°46' E 029°26'0 0.0
2014-Sep-24 16:30N 40°46' E 029°26'0 0.0
2014-Sep-24 15:28N 40°46' E 029°26'7 7.1
2014-Sep-24 14:33N 40°45' E 029°17'9 8.7
2014-Sep-24 13:32N 40°50' E 029°07'8 7.9
2014-Sep-24 12:33N 40°56' E 029°01'  

Dump ship's entire track history